sensor_id;sensor_type;location;lat;lon;timestamp;P1;durP1;ratioP1;P2;durP2;ratioP2
47575;SDS011;33304;52.456;13.328;2023-06-19T00:00:30;4.90;;;4.30;;
47575;SDS011;33304;52.456;13.328;2023-06-19T00:02:58;4.83;;;4.53;;
47575;SDS011;33304;52.456;13.328;2023-06-19T00:05:25;4.37;;;4.07;;
47575;SDS011;33304;52.456;13.328;2023-06-19T00:07:53;4.70;;;4.40;;
47575;SDS011;33304;52.456;13.328;2023-06-19T00:10:20;4.37;;;4.07;;
47575;SDS011;33304;52.456;13.328;2023-06-19T00:12:47;4.70;;;4.30;;
47575;SDS011;33304;52.456;13.328;2023-06-19T00:15:14;4.50;;;4.20;;
47575;SDS011;33304;52.456;13.328;2023-06-19T00:17:41;4.60;;;4.30;;
47575;SDS011;33304;52.456;13.328;2023-06-19T00:20:10;5.00;;;4.60;;
47575;SDS011;33304;52.456;13.328;2023-06-19T00:22:39;4.97;;;4.57;;
47575;SDS011;33304;52.456;13.328;2023-06-19T00:25:06;5.17;;;4.77;;
47575;SDS011;33304;52.456;13.328;2023-06-19T00:27:34;5.10;;;4.70;;
47575;SDS011;33304;52.456;13.328;2023-06-19T00:30:01;5.00;;;4.60;;
47575;SDS011;33304;52.456;13.328;2023-06-19T00:32:28;4.53;;;4.13;;
47575;SDS011;33304;52.456;13.328;2023-06-19T00:34:56;4.30;;;3.93;;
47575;SDS011;33304;52.456;13.328;2023-06-19T00:37:26;4.17;;;3.87;;
47575;SDS011;33304;52.456;13.328;2023-06-19T00:39:58;4.87;;;4.33;;
47575;SDS011;33304;52.456;13.328;2023-06-19T00:42:26;4.50;;;4.10;;
47575;SDS011;33304;52.456;13.328;2023-06-19T00:44:53;4.33;;;4.00;;
47575;SDS011;33304;52.456;13.328;2023-06-19T00:47:20;4.63;;;4.27;;
47575;SDS011;33304;52.456;13.328;2023-06-19T00:49:48;3.63;;;3.43;;
47575;SDS011;33304;52.456;13.328;2023-06-19T00:52:16;4.30;;;4.00;;
47575;SDS011;33304;52.456;13.328;2023-06-19T00:54:45;4.37;;;4.07;;
47575;SDS011;33304;52.456;13.328;2023-06-19T00:57:12;3.93;;;3.63;;
47575;SDS011;33304;52.456;13.328;2023-06-19T00:59:39;4.23;;;3.93;;
47575;SDS011;33304;52.456;13.328;2023-06-19T01:02:07;4.53;;;4.23;;
47575;SDS011;33304;52.456;13.328;2023-06-19T01:04:34;4.40;;;4.10;;
47575;SDS011;33304;52.456;13.328;2023-06-19T01:07:02;4.23;;;3.93;;
47575;SDS011;33304;52.456;13.328;2023-06-19T01:09:37;5.47;;;3.47;;
47575;SDS011;33304;52.456;13.328;2023-06-19T01:12:13;4.13;;;3.83;;
47575;SDS011;33304;52.456;13.328;2023-06-19T01:14:44;4.17;;;3.70;;
47575;SDS011;33304;52.456;13.328;2023-06-19T01:17:17;4.03;;;3.73;;
47575;SDS011;33304;52.456;13.328;2023-06-19T01:19:46;3.67;;;3.37;;
47575;SDS011;33304;52.456;13.328;2023-06-19T01:22:23;4.13;;;3.83;;
47575;SDS011;33304;52.456;13.328;2023-06-19T01:24:51;3.90;;;3.70;;
47575;SDS011;33304;52.456;13.328;2023-06-19T01:27:18;4.10;;;3.80;;
47575;SDS011;33304;52.456;13.328;2023-06-19T01:29:45;4.03;;;3.73;;
47575;SDS011;33304;52.456;13.328;2023-06-19T01:32:15;3.93;;;3.63;;
47575;SDS011;33304;52.456;13.328;2023-06-19T01:34:45;4.10;;;3.70;;
47575;SDS011;33304;52.456;13.328;2023-06-19T01:37:14;4.40;;;4.10;;
47575;SDS011;33304;52.456;13.328;2023-06-19T01:39:43;3.97;;;3.67;;
47575;SDS011;33304;52.456;13.328;2023-06-19T01:42:12;3.93;;;3.53;;
47575;SDS011;33304;52.456;13.328;2023-06-19T01:44:40;4.00;;;3.70;;
47575;SDS011;33304;52.456;13.328;2023-06-19T01:47:08;4.30;;;4.00;;
47575;SDS011;33304;52.456;13.328;2023-06-19T01:49:36;3.93;;;3.63;;
47575;SDS011;33304;52.456;13.328;2023-06-19T01:52:04;4.13;;;3.83;;
47575;SDS011;33304;52.456;13.328;2023-06-19T01:54:32;4.33;;;4.00;;
47575;SDS011;33304;52.456;13.328;2023-06-19T01:57:00;3.93;;;3.63;;
47575;SDS011;33304;52.456;13.328;2023-06-19T01:59:29;4.43;;;4.03;;
47575;SDS011;33304;52.456;13.328;2023-06-19T02:01:57;4.70;;;4.30;;
47575;SDS011;33304;52.456;13.328;2023-06-19T02:04:24;4.80;;;4.50;;
47575;SDS011;33304;52.456;13.328;2023-06-19T02:06:51;5.63;;;4.93;;
47575;SDS011;33304;52.456;13.328;2023-06-19T02:09:18;4.30;;;4.00;;
47575;SDS011;33304;52.456;13.328;2023-06-19T02:11:45;4.90;;;4.50;;
47575;SDS011;33304;52.456;13.328;2023-06-19T02:14:14;4.90;;;4.50;;
47575;SDS011;33304;52.456;13.328;2023-06-19T02:16:41;4.53;;;4.23;;
47575;SDS011;33304;52.456;13.328;2023-06-19T02:19:09;4.77;;;4.37;;
47575;SDS011;33304;52.456;13.328;2023-06-19T02:21:38;5.20;;;4.80;;
47575;SDS011;33304;52.456;13.328;2023-06-19T02:24:05;4.60;;;4.30;;
47575;SDS011;33304;52.456;13.328;2023-06-19T02:26:32;4.97;;;4.60;;
47575;SDS011;33304;52.456;13.328;2023-06-19T02:28:59;4.63;;;4.23;;
47575;SDS011;33304;52.456;13.328;2023-06-19T02:31:28;4.37;;;4.07;;
47575;SDS011;33304;52.456;13.328;2023-06-19T02:33:57;4.90;;;4.50;;
47575;SDS011;33304;52.456;13.328;2023-06-19T02:36:24;5.00;;;4.60;;
47575;SDS011;33304;52.456;13.328;2023-06-19T02:38:51;5.33;;;4.93;;
47575;SDS011;33304;52.456;13.328;2023-06-19T02:41:18;5.50;;;5.10;;
47575;SDS011;33304;52.456;13.328;2023-06-19T02:43:45;5.37;;;4.90;;
47575;SDS011;33304;52.456;13.328;2023-06-19T02:46:14;4.50;;;4.20;;
47575;SDS011;33304;52.456;13.328;2023-06-19T02:48:42;5.10;;;4.70;;
47575;SDS011;33304;52.456;13.328;2023-06-19T02:51:09;4.73;;;4.33;;
47575;SDS011;33304;52.456;13.328;2023-06-19T02:53:36;5.40;;;5.00;;
47575;SDS011;33304;52.456;13.328;2023-06-19T02:56:03;4.70;;;4.40;;
47575;SDS011;33304;52.456;13.328;2023-06-19T02:58:31;5.33;;;4.80;;
47575;SDS011;33304;52.456;13.328;2023-06-19T03:00:58;5.23;;;4.83;;
47575;SDS011;33304;52.456;13.328;2023-06-19T03:03:25;5.20;;;4.80;;
47575;SDS011;33304;52.456;13.328;2023-06-19T03:05:53;5.67;;;5.03;;
47575;SDS011;33304;52.456;13.328;2023-06-19T03:08:20;4.90;;;4.50;;
47575;SDS011;33304;52.456;13.328;2023-06-19T03:10:48;5.90;;;4.87;;
47575;SDS011;33304;52.456;13.328;2023-06-19T03:13:15;5.10;;;4.70;;
47575;SDS011;33304;52.456;13.328;2023-06-19T03:15:42;5.60;;;5.10;;
47575;SDS011;33304;52.456;13.328;2023-06-19T03:18:09;5.90;;;5.30;;
47575;SDS011;33304;52.456;13.328;2023-06-19T03:20:38;5.37;;;4.97;;
47575;SDS011;33304;52.456;13.328;2023-06-19T03:23:07;5.57;;;5.17;;
47575;SDS011;33304;52.456;13.328;2023-06-19T03:25:35;5.67;;;5.27;;
47575;SDS011;33304;52.456;13.328;2023-06-19T03:28:02;5.53;;;5.13;;
47575;SDS011;33304;52.456;13.328;2023-06-19T03:30:31;5.80;;;5.37;;
47575;SDS011;33304;52.456;13.328;2023-06-19T03:32:58;5.57;;;5.13;;
47575;SDS011;33304;52.456;13.328;2023-06-19T03:35:40;6.10;;;5.10;;
47575;SDS011;33304;52.456;13.328;2023-06-19T03:38:11;5.90;;;5.50;;
47575;SDS011;33304;52.456;13.328;2023-06-19T03:40:40;5.43;;;4.97;;
47575;SDS011;33304;52.456;13.328;2023-06-19T03:43:10;5.67;;;5.17;;
47575;SDS011;33304;52.456;13.328;2023-06-19T03:45:38;5.73;;;5.33;;
47575;SDS011;33304;52.456;13.328;2023-06-19T03:48:06;5.50;;;5.10;;
47575;SDS011;33304;52.456;13.328;2023-06-19T03:50:33;5.57;;;4.77;;
47575;SDS011;33304;52.456;13.328;2023-06-19T03:53:00;5.30;;;4.90;;
47575;SDS011;33304;52.456;13.328;2023-06-19T03:55:29;4.43;;;4.13;;
47575;SDS011;33304;52.456;13.328;2023-06-19T03:57:56;5.30;;;4.57;;
47575;SDS011;33304;52.456;13.328;2023-06-19T04:00:23;5.80;;;5.30;;
47575;SDS011;33304;52.456;13.328;2023-06-19T04:02:51;5.40;;;5.00;;
47575;SDS011;33304;52.456;13.328;2023-06-19T04:05:18;5.67;;;5.27;;
47575;SDS011;33304;52.456;13.328;2023-06-19T04:07:46;5.23;;;4.83;;
47575;SDS011;33304;52.456;13.328;2023-06-19T04:10:14;4.97;;;4.57;;
47575;SDS011;33304;52.456;13.328;2023-06-19T04:12:42;5.90;;;5.40;;
47575;SDS011;33304;52.456;13.328;2023-06-19T04:15:10;5.80;;;5.40;;
47575;SDS011;33304;52.456;13.328;2023-06-19T04:17:37;5.30;;;4.80;;
47575;SDS011;33304;52.456;13.328;2023-06-19T04:20:05;5.10;;;4.70;;
47575;SDS011;33304;52.456;13.328;2023-06-19T04:22:36;5.53;;;4.63;;
47575;SDS011;33304;52.456;13.328;2023-06-19T04:25:05;5.13;;;4.73;;
47575;SDS011;33304;52.456;13.328;2023-06-19T04:27:33;4.60;;;4.30;;
47575;SDS011;33304;52.456;13.328;2023-06-19T04:30:02;4.53;;;4.23;;
47575;SDS011;33304;52.456;13.328;2023-06-19T04:32:31;4.53;;;4.23;;
47575;SDS011;33304;52.456;13.328;2023-06-19T04:35:00;4.77;;;4.47;;
47575;SDS011;33304;52.456;13.328;2023-06-19T04:37:27;4.97;;;4.57;;
47575;SDS011;33304;52.456;13.328;2023-06-19T04:39:54;4.67;;;4.37;;
47575;SDS011;33304;52.456;13.328;2023-06-19T04:42:21;4.43;;;4.13;;
47575;SDS011;33304;52.456;13.328;2023-06-19T04:44:49;4.83;;;4.53;;
47575;SDS011;33304;52.456;13.328;2023-06-19T04:47:18;4.50;;;4.20;;
47575;SDS011;33304;52.456;13.328;2023-06-19T04:49:46;4.70;;;4.17;;
47575;SDS011;33304;52.456;13.328;2023-06-19T04:52:13;4.70;;;4.40;;
47575;SDS011;33304;52.456;13.328;2023-06-19T04:54:40;5.10;;;4.70;;
47575;SDS011;33304;52.456;13.328;2023-06-19T04:57:07;4.60;;;4.30;;
47575;SDS011;33304;52.456;13.328;2023-06-19T04:59:34;5.03;;;4.73;;
47575;SDS011;33304;52.456;13.328;2023-06-19T05:02:02;4.93;;;4.43;;
47575;SDS011;33304;52.456;13.328;2023-06-19T05:04:31;5.40;;;5.00;;
47575;SDS011;33304;52.456;13.328;2023-06-19T05:06:58;4.70;;;4.40;;
47575;SDS011;33304;52.456;13.328;2023-06-19T05:09:25;5.03;;;4.70;;
47575;SDS011;33304;52.456;13.328;2023-06-19T05:11:52;5.37;;;4.97;;
47575;SDS011;33304;52.456;13.328;2023-06-19T05:14:19;4.80;;;4.40;;
47575;SDS011;33304;52.456;13.328;2023-06-19T05:16:46;4.53;;;4.23;;
47575;SDS011;33304;52.456;13.328;2023-06-19T05:19:13;4.50;;;4.17;;
47575;SDS011;33304;52.456;13.328;2023-06-19T05:21:42;5.40;;;5.00;;
47575;SDS011;33304;52.456;13.328;2023-06-19T05:24:09;5.27;;;4.77;;
47575;SDS011;33304;52.456;13.328;2023-06-19T05:26:36;5.30;;;4.90;;
47575;SDS011;33304;52.456;13.328;2023-06-19T05:29:03;5.20;;;4.80;;
47575;SDS011;33304;52.456;13.328;2023-06-19T05:31:34;5.33;;;4.93;;
47575;SDS011;33304;52.456;13.328;2023-06-19T05:34:01;5.03;;;4.63;;
47575;SDS011;33304;52.456;13.328;2023-06-19T05:36:28;5.07;;;4.63;;
47575;SDS011;33304;52.456;13.328;2023-06-19T05:38:57;5.70;;;5.17;;
47575;SDS011;33304;52.456;13.328;2023-06-19T05:41:24;4.83;;;4.53;;
47575;SDS011;33304;52.456;13.328;2023-06-19T05:43:51;5.23;;;4.83;;
47575;SDS011;33304;52.456;13.328;2023-06-19T05:46:18;5.60;;;5.13;;
47575;SDS011;33304;52.456;13.328;2023-06-19T05:48:46;5.03;;;4.63;;
47575;SDS011;33304;52.456;13.328;2023-06-19T05:51:13;4.83;;;4.40;;
47575;SDS011;33304;52.456;13.328;2023-06-19T05:53:40;5.40;;;5.00;;
47575;SDS011;33304;52.456;13.328;2023-06-19T05:56:09;4.90;;;4.50;;
47575;SDS011;33304;52.456;13.328;2023-06-19T05:58:36;5.10;;;4.70;;
47575;SDS011;33304;52.456;13.328;2023-06-19T06:01:04;4.40;;;4.10;;
47575;SDS011;33304;52.456;13.328;2023-06-19T06:03:32;5.30;;;4.80;;
47575;SDS011;33304;52.456;13.328;2023-06-19T06:05:59;4.73;;;4.40;;
47575;SDS011;33304;52.456;13.328;2023-06-19T06:08:28;4.50;;;4.03;;
47575;SDS011;33304;52.456;13.328;2023-06-19T06:10:56;4.57;;;4.23;;
47575;SDS011;33304;52.456;13.328;2023-06-19T06:13:24;4.53;;;4.23;;
47575;SDS011;33304;52.456;13.328;2023-06-19T06:15:52;5.20;;;4.80;;
47575;SDS011;33304;52.456;13.328;2023-06-19T06:18:19;5.30;;;4.40;;
47575;SDS011;33304;52.456;13.328;2023-06-19T06:20:46;9.30;;;4.60;;
47575;SDS011;33304;52.456;13.328;2023-06-19T06:23:13;6.17;;;4.87;;
47575;SDS011;33304;52.456;13.328;2023-06-19T06:25:40;6.27;;;4.70;;
47575;SDS011;33304;52.456;13.328;2023-06-19T06:28:07;6.73;;;5.40;;
47575;SDS011;33304;52.456;13.328;2023-06-19T06:30:36;6.30;;;4.60;;
47575;SDS011;33304;52.456;13.328;2023-06-19T06:33:04;9.07;;;4.87;;
47575;SDS011;33304;52.456;13.328;2023-06-19T06:35:31;5.17;;;4.33;;
47575;SDS011;33304;52.456;13.328;2023-06-19T06:38:00;6.13;;;5.10;;
47575;SDS011;33304;52.456;13.328;2023-06-19T06:40:27;4.73;;;4.33;;
47575;SDS011;33304;52.456;13.328;2023-06-19T06:42:54;6.30;;;4.53;;
47575;SDS011;33304;52.456;13.328;2023-06-19T06:45:21;8.00;;;4.50;;
47575;SDS011;33304;52.456;13.328;2023-06-19T06:47:49;4.87;;;4.47;;
47575;SDS011;33304;52.456;13.328;2023-06-19T06:50:16;4.40;;;4.10;;
47575;SDS011;33304;52.456;13.328;2023-06-19T06:52:44;6.10;;;4.47;;
47575;SDS011;33304;52.456;13.328;2023-06-19T06:55:11;4.63;;;4.20;;
47575;SDS011;33304;52.456;13.328;2023-06-19T06:57:39;6.43;;;4.47;;
47575;SDS011;33304;52.456;13.328;2023-06-19T07:00:06;5.73;;;4.67;;
47575;SDS011;33304;52.456;13.328;2023-06-19T07:02:35;4.47;;;4.17;;
47575;SDS011;33304;52.456;13.328;2023-06-19T07:05:06;3.93;;;3.63;;
47575;SDS011;33304;52.456;13.328;2023-06-19T07:07:34;4.60;;;4.30;;
47575;SDS011;33304;52.456;13.328;2023-06-19T07:10:01;4.70;;;4.40;;
47575;SDS011;33304;52.456;13.328;2023-06-19T07:12:28;4.90;;;4.50;;
47575;SDS011;33304;52.456;13.328;2023-06-19T07:14:55;5.00;;;4.53;;
47575;SDS011;33304;52.456;13.328;2023-06-19T07:17:22;4.77;;;4.43;;
47575;SDS011;33304;52.456;13.328;2023-06-19T07:19:49;4.77;;;4.47;;
47575;SDS011;33304;52.456;13.328;2023-06-19T07:22:17;4.60;;;4.30;;
47575;SDS011;33304;52.456;13.328;2023-06-19T07:24:45;4.87;;;4.57;;
47575;SDS011;33304;52.456;13.328;2023-06-19T07:27:12;4.70;;;4.40;;
47575;SDS011;33304;52.456;13.328;2023-06-19T07:29:39;4.43;;;4.13;;
47575;SDS011;33304;52.456;13.328;2023-06-19T07:32:09;5.00;;;4.50;;
47575;SDS011;33304;52.456;13.328;2023-06-19T07:34:36;5.57;;;4.70;;
47575;SDS011;33304;52.456;13.328;2023-06-19T07:37:04;4.50;;;3.90;;
47575;SDS011;33304;52.456;13.328;2023-06-19T07:39:32;4.43;;;4.13;;
47575;SDS011;33304;52.456;13.328;2023-06-19T07:41:59;7.30;;;4.30;;
47575;SDS011;33304;52.456;13.328;2023-06-19T07:44:26;5.37;;;4.97;;
47575;SDS011;33304;52.456;13.328;2023-06-19T07:46:53;6.40;;;3.93;;
47575;SDS011;33304;52.456;13.328;2023-06-19T07:49:20;4.40;;;4.10;;
47575;SDS011;33304;52.456;13.328;2023-06-19T07:51:47;5.60;;;4.20;;
47575;SDS011;33304;52.456;13.328;2023-06-19T07:54:14;5.00;;;4.60;;
47575;SDS011;33304;52.456;13.328;2023-06-19T07:56:43;4.37;;;4.07;;
47575;SDS011;33304;52.456;13.328;2023-06-19T07:59:10;5.23;;;4.20;;
47575;SDS011;33304;52.456;13.328;2023-06-19T08:01:37;4.50;;;4.20;;
47575;SDS011;33304;52.456;13.328;2023-06-19T08:04:04;5.17;;;4.40;;
47575;SDS011;33304;52.456;13.328;2023-06-19T08:06:31;3.97;;;3.67;;
47575;SDS011;33304;52.456;13.328;2023-06-19T08:08:58;4.43;;;4.10;;
47575;SDS011;33304;52.456;13.328;2023-06-19T08:11:25;4.80;;;4.30;;
47575;SDS011;33304;52.456;13.328;2023-06-19T08:13:54;4.30;;;3.90;;
47575;SDS011;33304;52.456;13.328;2023-06-19T08:16:21;3.57;;;3.27;;
47575;SDS011;33304;52.456;13.328;2023-06-19T08:18:48;4.67;;;4.27;;
47575;SDS011;33304;52.456;13.328;2023-06-19T08:21:15;4.37;;;3.97;;
47575;SDS011;33304;52.456;13.328;2023-06-19T08:23:42;4.20;;;3.90;;
47575;SDS011;33304;52.456;13.328;2023-06-19T08:26:09;4.73;;;3.90;;
47575;SDS011;33304;52.456;13.328;2023-06-19T08:28:37;4.50;;;4.20;;
47575;SDS011;33304;52.456;13.328;2023-06-19T08:31:07;4.37;;;4.00;;
47575;SDS011;33304;52.456;13.328;2023-06-19T08:33:34;5.17;;;4.50;;
47575;SDS011;33304;52.456;13.328;2023-06-19T08:36:01;4.37;;;4.07;;
47575;SDS011;33304;52.456;13.328;2023-06-19T08:38:29;4.80;;;4.40;;
47575;SDS011;33304;52.456;13.328;2023-06-19T08:40:56;4.37;;;3.97;;
47575;SDS011;33304;52.456;13.328;2023-06-19T08:43:23;4.97;;;4.57;;
47575;SDS011;33304;52.456;13.328;2023-06-19T08:45:55;4.33;;;4.03;;
47575;SDS011;33304;52.456;13.328;2023-06-19T08:48:35;6.20;;;5.80;;
47575;SDS011;33304;52.456;13.328;2023-06-19T08:51:03;31.77;;;28.40;;
47575;SDS011;33304;52.456;13.328;2023-06-19T08:53:32;7.67;;;7.07;;
47575;SDS011;33304;52.456;13.328;2023-06-19T08:56:00;6.33;;;5.83;;
47575;SDS011;33304;52.456;13.328;2023-06-19T08:58:28;5.50;;;5.03;;
47575;SDS011;33304;52.456;13.328;2023-06-19T09:00:57;4.60;;;4.20;;
47575;SDS011;33304;52.456;13.328;2023-06-19T09:03:25;4.27;;;3.97;;
47575;SDS011;33304;52.456;13.328;2023-06-19T09:05:54;6.30;;;4.93;;
47575;SDS011;33304;52.456;13.328;2023-06-19T09:08:22;4.97;;;4.57;;
47575;SDS011;33304;52.456;13.328;2023-06-19T09:10:56;4.93;;;4.57;;
47575;SDS011;33304;52.456;13.328;2023-06-19T09:13:23;4.70;;;4.40;;
47575;SDS011;33304;52.456;13.328;2023-06-19T09:15:57;4.60;;;4.30;;
47575;SDS011;33304;52.456;13.328;2023-06-19T09:18:25;4.33;;;4.03;;
47575;SDS011;33304;52.456;13.328;2023-06-19T09:20:54;4.93;;;4.53;;
47575;SDS011;33304;52.456;13.328;2023-06-19T09:23:21;5.10;;;4.70;;
47575;SDS011;33304;52.456;13.328;2023-06-19T09:25:51;5.17;;;4.77;;
47575;SDS011;33304;52.456;13.328;2023-06-19T09:28:21;5.27;;;4.77;;
47575;SDS011;33304;52.456;13.328;2023-06-19T09:30:52;4.80;;;4.40;;
47575;SDS011;33304;52.456;13.328;2023-06-19T09:33:20;4.80;;;4.50;;
47575;SDS011;33304;52.456;13.328;2023-06-19T09:35:49;4.80;;;4.40;;
47575;SDS011;33304;52.456;13.328;2023-06-19T09:38:18;5.57;;;4.63;;
47575;SDS011;33304;52.456;13.328;2023-06-19T09:40:48;4.30;;;4.00;;
47575;SDS011;33304;52.456;13.328;2023-06-19T09:43:17;5.13;;;4.80;;
47575;SDS011;33304;52.456;13.328;2023-06-19T09:45:47;4.93;;;4.53;;
47575;SDS011;33304;52.456;13.328;2023-06-19T09:48:18;4.93;;;4.53;;
47575;SDS011;33304;52.456;13.328;2023-06-19T09:50:51;4.80;;;4.50;;
47575;SDS011;33304;52.456;13.328;2023-06-19T09:53:27;4.63;;;4.33;;
47575;SDS011;33304;52.456;13.328;2023-06-19T09:55:55;5.57;;;5.17;;
47575;SDS011;33304;52.456;13.328;2023-06-19T09:58:22;6.63;;;4.57;;
47575;SDS011;33304;52.456;13.328;2023-06-19T10:00:52;5.60;;;5.20;;
47575;SDS011;33304;52.456;13.328;2023-06-19T10:03:20;4.53;;;4.23;;
47575;SDS011;33304;52.456;13.328;2023-06-19T10:05:57;5.07;;;4.57;;
47575;SDS011;33304;52.456;13.328;2023-06-19T10:08:29;7.33;;;6.73;;
47575;SDS011;33304;52.456;13.328;2023-06-19T10:10:58;6.30;;;5.85;;
47575;SDS011;33304;52.456;13.328;2023-06-19T10:13:32;6.07;;;5.38;;
47575;SDS011;33304;52.456;13.328;2023-06-19T10:16:00;5.20;;;4.80;;
47575;SDS011;33304;52.456;13.328;2023-06-19T10:18:27;8.95;;;4.63;;
47575;SDS011;33304;52.456;13.328;2023-06-19T10:20:55;4.75;;;4.35;;
47575;SDS011;33304;52.456;13.328;2023-06-19T10:23:24;4.82;;;4.53;;
47575;SDS011;33304;52.456;13.328;2023-06-19T10:25:59;4.22;;;3.92;;
47575;SDS011;33304;52.456;13.328;2023-06-19T10:28:27;4.40;;;4.10;;
47575;SDS011;33304;52.456;13.328;2023-06-19T10:30:55;4.45;;;4.13;;
47575;SDS011;33304;52.456;13.328;2023-06-19T10:33:23;4.65;;;4.35;;
47575;SDS011;33304;52.456;13.328;2023-06-19T10:35:53;4.80;;;4.40;;
47575;SDS011;33304;52.456;13.328;2023-06-19T10:38:20;4.70;;;4.40;;
47575;SDS011;33304;52.456;13.328;2023-06-19T10:40:48;4.45;;;4.05;;
47575;SDS011;33304;52.456;13.328;2023-06-19T10:43:20;4.32;;;4.03;;
47575;SDS011;33304;52.456;13.328;2023-06-19T10:45:50;4.63;;;4.22;;
47575;SDS011;33304;52.456;13.328;2023-06-19T10:48:18;4.07;;;3.78;;
47575;SDS011;33304;52.456;13.328;2023-06-19T10:50:47;4.88;;;4.55;;
47575;SDS011;33304;52.456;13.328;2023-06-19T10:53:22;4.15;;;3.85;;
47575;SDS011;33304;52.456;13.328;2023-06-19T10:55:54;4.35;;;4.05;;
47575;SDS011;33304;52.456;13.328;2023-06-19T10:58:23;4.75;;;4.43;;
47575;SDS011;33304;52.456;13.328;2023-06-19T11:00:50;4.15;;;3.80;;
47575;SDS011;33304;52.456;13.328;2023-06-19T11:03:18;4.80;;;4.40;;
47575;SDS011;33304;52.456;13.328;2023-06-19T11:05:45;4.68;;;4.38;;
47575;SDS011;33304;52.456;13.328;2023-06-19T11:08:16;4.43;;;4.13;;
47575;SDS011;33304;52.456;13.328;2023-06-19T11:10:44;4.63;;;4.22;;
47575;SDS011;33304;52.456;13.328;2023-06-19T11:13:13;4.65;;;4.20;;
47575;SDS011;33304;52.456;13.328;2023-06-19T11:15:43;15.05;;;4.20;;
47575;SDS011;33304;52.456;13.328;2023-06-19T11:18:10;3.63;;;3.33;;
47575;SDS011;33304;52.456;13.328;2023-06-19T11:20:44;3.63;;;3.40;;
47575;SDS011;33304;52.456;13.328;2023-06-19T11:23:13;4.22;;;3.90;;
47575;SDS011;33304;52.456;13.328;2023-06-19T11:25:41;4.65;;;3.50;;
47575;SDS011;33304;52.456;13.328;2023-06-19T11:28:11;4.40;;;4.10;;
47575;SDS011;33304;52.456;13.328;2023-06-19T11:30:40;4.13;;;3.90;;
47575;SDS011;33304;52.456;13.328;2023-06-19T11:33:17;4.25;;;3.95;;
47575;SDS011;33304;52.456;13.328;2023-06-19T11:35:47;3.70;;;3.45;;
47575;SDS011;33304;52.456;13.328;2023-06-19T11:38:16;4.22;;;3.92;;
47575;SDS011;33304;52.456;13.328;2023-06-19T11:40:44;4.30;;;4.00;;
47575;SDS011;33304;52.456;13.328;2023-06-19T11:43:12;4.35;;;3.95;;
47575;SDS011;33304;52.456;13.328;2023-06-19T11:45:50;5.05;;;4.53;;
47575;SDS011;33304;52.456;13.328;2023-06-19T11:48:23;4.53;;;4.22;;
47575;SDS011;33304;52.456;13.328;2023-06-19T11:50:50;4.45;;;4.15;;
47575;SDS011;33304;52.456;13.328;2023-06-19T11:53:18;5.00;;;4.70;;
47575;SDS011;33304;52.456;13.328;2023-06-19T11:55:45;4.65;;;4.35;;
47575;SDS011;33304;52.456;13.328;2023-06-19T11:58:12;5.07;;;4.70;;
47575;SDS011;33304;52.456;13.328;2023-06-19T12:00:40;4.60;;;4.30;;
47575;SDS011;33304;52.456;13.328;2023-06-19T12:03:08;5.03;;;4.53;;
47575;SDS011;33304;52.456;13.328;2023-06-19T12:05:37;4.50;;;4.20;;
47575;SDS011;33304;52.456;13.328;2023-06-19T12:08:04;4.10;;;3.72;;
47575;SDS011;33304;52.456;13.328;2023-06-19T12:10:33;4.05;;;3.75;;
47575;SDS011;33304;52.456;13.328;2023-06-19T12:13:00;3.90;;;3.60;;
47575;SDS011;33304;52.456;13.328;2023-06-19T12:15:28;3.75;;;3.53;;
47575;SDS011;33304;52.456;13.328;2023-06-19T12:17:55;4.43;;;4.00;;
47575;SDS011;33304;52.456;13.328;2023-06-19T12:20:23;4.53;;;4.20;;
47575;SDS011;33304;52.456;13.328;2023-06-19T12:22:52;4.22;;;3.83;;
47575;SDS011;33304;52.456;13.328;2023-06-19T12:25:19;4.32;;;4.03;;
47575;SDS011;33304;52.456;13.328;2023-06-19T12:27:46;4.40;;;4.10;;
47575;SDS011;33304;52.456;13.328;2023-06-19T12:30:17;4.40;;;4.10;;
47575;SDS011;33304;52.456;13.328;2023-06-19T12:32:44;5.90;;;5.50;;
47575;SDS011;33304;52.456;13.328;2023-06-19T12:35:14;6.30;;;6.00;;
47575;SDS011;33304;52.456;13.328;2023-06-19T12:37:41;7.35;;;6.95;;
47575;SDS011;33304;52.456;13.328;2023-06-19T12:40:10;7.32;;;6.72;;
47575;SDS011;33304;52.456;13.328;2023-06-19T12:42:37;7.90;;;7.40;;
47575;SDS011;33304;52.456;13.328;2023-06-19T12:45:05;6.68;;;6.32;;
47575;SDS011;33304;52.456;13.328;2023-06-19T12:47:32;6.82;;;6.32;;
47575;SDS011;33304;52.456;13.328;2023-06-19T12:50:00;6.78;;;6.38;;
47575;SDS011;33304;52.456;13.328;2023-06-19T12:52:27;8.38;;;7.97;;
47575;SDS011;33304;52.456;13.328;2023-06-19T12:54:54;12.57;;;11.98;;
47575;SDS011;33304;52.456;13.328;2023-06-19T12:57:22;15.40;;;14.60;;
47575;SDS011;33304;52.456;13.328;2023-06-19T12:59:50;15.77;;;14.88;;
47575;SDS011;33304;52.456;13.328;2023-06-19T13:02:17;13.85;;;13.20;;
47575;SDS011;33304;52.456;13.328;2023-06-19T13:04:44;14.90;;;14.20;;
47575;SDS011;33304;52.456;13.328;2023-06-19T13:07:11;18.17;;;17.38;;
47575;SDS011;33304;52.456;13.328;2023-06-19T13:09:38;25.98;;;24.80;;
47575;SDS011;33304;52.456;13.328;2023-06-19T13:12:06;23.50;;;22.45;;
47575;SDS011;33304;52.456;13.328;2023-06-19T13:14:35;21.70;;;20.70;;
47575;SDS011;33304;52.456;13.328;2023-06-19T13:17:03;22.42;;;21.35;;
47575;SDS011;33304;52.456;13.328;2023-06-19T13:19:30;22.10;;;21.10;;
47575;SDS011;33304;52.456;13.328;2023-06-19T13:21:57;22.38;;;21.38;;
47575;SDS011;33304;52.456;13.328;2023-06-19T13:24:24;22.55;;;21.55;;
47575;SDS011;33304;52.456;13.328;2023-06-19T13:26:52;19.60;;;18.75;;
47575;SDS011;33304;52.456;13.328;2023-06-19T13:29:20;19.00;;;18.10;;
47575;SDS011;33304;52.456;13.328;2023-06-19T13:31:48;14.93;;;14.23;;
47575;SDS011;33304;52.456;13.328;2023-06-19T13:34:15;16.83;;;16.05;;
47575;SDS011;33304;52.456;13.328;2023-06-19T13:36:44;19.00;;;17.90;;
47575;SDS011;33304;52.456;13.328;2023-06-19T13:39:11;17.20;;;16.40;;
47575;SDS011;33304;52.456;13.328;2023-06-19T13:41:38;22.63;;;21.63;;
47575;SDS011;33304;52.456;13.328;2023-06-19T13:44:06;16.80;;;16.02;;
47575;SDS011;33304;52.456;13.328;2023-06-19T13:46:33;17.75;;;16.95;;
47575;SDS011;33304;52.456;13.328;2023-06-19T13:49:01;20.38;;;19.45;;
47575;SDS011;33304;52.456;13.328;2023-06-19T13:51:28;21.45;;;20.45;;
47575;SDS011;33304;52.456;13.328;2023-06-19T13:53:55;21.13;;;20.17;;
47575;SDS011;33304;52.456;13.328;2023-06-19T13:56:22;20.42;;;19.45;;
47575;SDS011;33304;52.456;13.328;2023-06-19T13:58:49;21.08;;;20.08;;
47575;SDS011;33304;52.456;13.328;2023-06-19T14:01:17;19.90;;;18.95;;
47575;SDS011;33304;52.456;13.328;2023-06-19T14:03:44;18.95;;;18.10;;
47575;SDS011;33304;52.456;13.328;2023-06-19T14:06:12;17.98;;;17.13;;
47575;SDS011;33304;52.456;13.328;2023-06-19T14:08:39;21.27;;;20.38;;
47575;SDS011;33304;52.456;13.328;2023-06-19T14:11:06;19.67;;;18.77;;
47575;SDS011;33304;52.456;13.328;2023-06-19T14:13:33;16.33;;;15.48;;
47575;SDS011;33304;52.456;13.328;2023-06-19T14:16:01;12.55;;;11.90;;
47575;SDS011;33304;52.456;13.328;2023-06-19T14:18:28;13.55;;;12.85;;
47575;SDS011;33304;52.456;13.328;2023-06-19T14:20:55;20.85;;;19.95;;
47575;SDS011;33304;52.456;13.328;2023-06-19T14:23:23;18.27;;;17.38;;
47575;SDS011;33304;52.456;13.328;2023-06-19T14:25:50;18.50;;;17.55;;
47575;SDS011;33304;52.456;13.328;2023-06-19T14:28:18;11.63;;;11.13;;
47575;SDS011;33304;52.456;13.328;2023-06-19T14:30:45;12.90;;;12.30;;
47575;SDS011;33304;52.456;13.328;2023-06-19T14:33:12;8.73;;;8.23;;
47575;SDS011;33304;52.456;13.328;2023-06-19T14:35:41;8.77;;;8.32;;